Forseti — V2PV4 — position and weather

sailwx.info

Track history (hours):
 
Tides and Currents Weather Stations Pressure Air Temp Water Temp Dewpoint Dewpoint Depression Visibility Wind Speed Wind Dir Waves Ship Positions

Forseti

Last reported at 2014-Dec-19 16:14 UTC. Time now 2014-Dec-20 08:45 UTC.
Position N 55°40' E 015°33'.

Length 85 m; draft 3.8 m.

Type: Cargo ship. MMSI: 304010297.

Date/timePositionNaut miles runAvg speedWind from/ knotsBaromVisibWave heightAir tempDewpointWater temp
2014-Dec-19 16:14N 55°40' E 015°33'710.2
2014-Dec-19 15:33N 55°36' E 015°22'1010.1
2014-Dec-19 14:31N 55°31' E 015°06'1010.4
2014-Dec-19 13:33N 55°26' E 014°50'1110.5
2014-Dec-19 12:33N 55°20' E 014°36'1110.7
2014-Dec-19 11:33N 55°11' E 014°24'1010.3
2014-Dec-19 10:33N 55°04' E 014°13'9 9.4
2014-Dec-19 09:33N 54°58' E 013°60'10 9.7
2014-Dec-19 08:30N 54°54' E 013°43'52 9.9
2014-Dec-19 03:15N 54°32' E 012°21'810.1
2014-Dec-19 02:29N 54°26' E 012°13'9 9.3
2014-Dec-19 01:33N 54°24' E 011°59'1010.5
2014-Dec-19 00:33N 54°26' E 011°41'1111.2
2014-Dec-18 23:33N 54°31' E 011°23'1211.8
2014-Dec-18 22:33N 54°35' E 011°04'1210.8
2014-Dec-18 21:28N 54°33' E 010°44'910.2
2014-Dec-18 20:33N 54°31' E 010°28'1010.1
2014-Dec-18 19:33N 54°26' E 010°14'5 4.8
2014-Dec-18 18:33N 54°22' E 010°09'6 6.2
2014-Dec-18 17:34N 54°21' E 009°58'8 7.6
2014-Dec-18 16:33N 54°21' E 009°45'6 4.6
2014-Dec-18 15:11N 54°16' E 009°38'4 5.2
2014-Dec-18 14:24N 54°12' E 009°34'8 8.6
2014-Dec-18 13:28N 54°09' E 009°22'8 8.3
2014-Dec-18 12:33N 54°02' E 009°18'8 8.3
2014-Dec-18 11:33N 53°55' E 009°11'2 1.6
2014-Dec-18 10:33N 53°54' E 009°09'2 1.8
2014-Dec-18 09:34N 53°53' E 009°06'2 2.4
2014-Dec-18 08:33N 53°52' E 009°02'1110.7
2014-Dec-18 07:33N 53°51' E 008°44'1010.3
2014-Dec-18 06:33N 53°58' E 008°31'1111.1
2014-Dec-18 05:33N 53°59' E 008°12'1111.1
2014-Dec-18 04:33N 54°03' E 007°54'1211.9
2014-Dec-18 03:33N 54°08' E 007°37'1211.7
2014-Dec-18 02:33N 54°09' E 007°17'4610.9
2014-Dec-17 22:22N 54°07' E 005°59'910.5
2014-Dec-17 21:33N 54°05' E 005°45'1110.5
2014-Dec-17 20:32N 54°04' E 005°26'1010.6
2014-Dec-17 19:33N 54°02' E 005°09'1010.6
2014-Dec-17 18:33N 54°01' E 004°51'21617.6
2014-Dec-17 06:16N 54°35' W 001°14'7126.1
2014-Dec-17 03:34N 54°07' E 000°37'10 9.7
2014-Dec-17 02:33N 54°08' E 000°20'1010.0
2014-Dec-17 01:34N 54°09' E 000°03'10 9.6
2014-Dec-17 00:33N 54°15' W 000°08'1010.1
2014-Dec-16 23:33N 54°23' W 000°20'1110.5
2014-Dec-16 22:33N 54°31' W 000°32'1111.1
2014-Dec-16 21:33N 54°36' W 000°49'1010.5
2014-Dec-16 20:33N 54°40' W 001°05'7 2.1
2014-Dec-16 17:16N 54°35' W 001°14'0 0.0
2014-Dec-16 16:31N 54°35' W 001°14'0 0.0
2014-Dec-16 15:31N 54°35' W 001°14'0 0.0
2014-Dec-16 14:31N 54°35' W 001°14'0 0.0
2014-Dec-16 13:32N 54°35' W 001°14'0 0.0
2014-Dec-16 12:22N 54°35' W 001°14'0 0.0
2014-Dec-16 11:22N 54°35' W 001°14'0 0.0
2014-Dec-16 10:07N 54°35' W 001°14'0 0.0
2014-Dec-16 09:22N 54°35' W 001°14'0 0.0
2014-Dec-16 08:25N 54°35' W 001°14'0 0.0
2014-Dec-16 07:34N 54°35' W 001°14'0 0.0
2014-Dec-16 06:18N 54°35' W 001°14'0 0.0
2014-Dec-15 17:15N 54°35' W 001°14'0 0.0
2014-Dec-15 16:33N 54°35' W 001°14'0 0.0
2014-Dec-15 15:18N 54°35' W 001°14'0 0.0
2014-Dec-15 14:30N 54°35' W 001°14'0 0.0
2014-Dec-15 13:34N 54°35' W 001°14'0 0.0
2014-Dec-15 12:21N 54°35' W 001°14'0 0.0
2014-Dec-15 11:33N 54°35' W 001°14'0 0.0
2014-Dec-15 10:33N 54°35' W 001°14'0 0.0
2014-Dec-15 09:24N 54°35' W 001°14'0 0.0
2014-Dec-15 08:09N 54°35' W 001°14'0 0.0
2014-Dec-15 07:21N 54°35' W 001°14'0 0.0
2014-Dec-15 06:21N 54°35' W 001°14'0 0.0
2014-Dec-15 05:33N 54°35' W 001°14'0 0.0
2014-Dec-14 23:21N 54°35' W 001°14'0 0.0
2014-Dec-14 10:29N 54°35' W 001°14'0 0.0
2014-Dec-14 09:29N 54°35' W 001°14'0 0.0
2014-Dec-14 08:32N 54°35' W 001°14'0 0.0
2014-Dec-14 07:29N 54°35' W 001°14'0 0.0
2014-Dec-14 01:32N 54°35' W 001°14'0 0.0
2014-Dec-13 19:32N 54°35' W 001°14'0 0.0
2014-Dec-13 07:23N 54°35' W 001°14'0 0.0
2014-Dec-13 06:29N 54°35' W 001°14'0 0.0
2014-Dec-13 05:08N 54°35' W 001°14'0 0.0
2014-Dec-13 04:20N 54°35' W 001°14'0 0.0
2014-Dec-12 23:20N 54°35' W 001°14'0 0.0
2014-Dec-12 22:20N 54°35' W 001°14'0 0.0
2014-Dec-12 16:25N 54°35' W 001°14'2 2.6
2014-Dec-12 15:29N 54°36' W 001°10'7 5.6
2014-Dec-12 14:19N 54°41' W 001°03'0 0.1
2014-Dec-12 13:23N 54°41' W 001°03'6 6.7
2014-Dec-12 12:32N 54°38' W 000°54'9 9.0
2014-Dec-12 11:33N 54°34' W 000°41'9 8.5
2014-Dec-12 10:33N 54°30' W 000°28'9 8.5
2014-Dec-12 09:33N 54°23' W 000°19'9 9.1
2014-Dec-12 08:33N 54°16' W 000°09'9 8.6
2014-Dec-12 07:33N 54°10' E 000°00'8 8.5
2014-Dec-12 06:33N 54°03' E 000°09'9 8.8
2014-Dec-12 05:33N 53°55' E 000°15'9 9.4
2014-Dec-12 04:33N 53°47' E 000°24'1010.2
2014-Dec-12 03:33N 53°38' E 000°32'4210.3
2014-Dec-11 23:31N 53°02' E 001°07'8 8.5
2014-Dec-11 22:33N 52°58' E 001°19'8 7.8
2014-Dec-11 21:33N 52°55' E 001°31'8 8.2
2014-Dec-11 20:33N 52°49' E 001°40'9 8.6
2014-Dec-11 19:33N 52°41' E 001°46'6 6.4
2014-Dec-11 18:33N 52°35' E 001°44'0 0.3
2014-Dec-11 17:32N 52°35' E 001°44'0 0.0
2014-Dec-11 16:32N 52°35' E 001°44'0 0.0
2014-Dec-11 15:32N 52°35' E 001°44'0 0.0
2014-Dec-11 14:32N 52°35' E 001°44'0 0.0
2014-Dec-11 13:32N 52°35' E 001°44'0 0.0
2014-Dec-11 12:32N 52°35' E 001°44'0 0.0
2014-Dec-11 11:32N 52°35' E 001°44'0 0.0
2014-Dec-11 10:31N 52°35' E 001°44'0 0.0
2014-Dec-11 09:31N 52°35' E 001°44'0 0.0
2014-Dec-11 08:31N 52°35' E 001°44'0 0.0
2014-Dec-11 07:31N 52°35' E 001°44'0 0.0
2014-Dec-11 06:31N 52°35' E 001°44'0 0.0
2014-Dec-11 05:31N 52°35' E 001°44'0 0.0
2014-Dec-11 04:31N 52°35' E 001°44'0 0.0
2014-Dec-11 03:31N 52°35' E 001°44'0 0.0
2014-Dec-11 02:31N 52°35' E 001°44'0 0.0
2014-Dec-11 01:31N 52°35' E 001°44'0 0.0
2014-Dec-11 00:31N 52°35' E 001°44'0 0.0
2014-Dec-10 23:31N 52°35' E 001°44'0 0.0
2014-Dec-10 22:31N 52°35' E 001°44'0 0.0
2014-Dec-10 21:31N 52°35' E 001°44'0 0.0
2014-Dec-10 20:31N 52°35' E 001°44'0 0.0
2014-Dec-10 19:31N 52°35' E 001°44'0 0.0
2014-Dec-10 18:31N 52°35' E 001°44'0 0.0
2014-Dec-10 17:31N 52°35' E 001°44'0 0.0
2014-Dec-10 16:31N 52°35' E 001°44'0 0.0
2014-Dec-10 15:31N 52°35' E 001°44'0 0.0
2014-Dec-10 14:31N 52°35' E 001°44'0 0.0
2014-Dec-10 13:31N 52°35' E 001°44'1 1.0
2014-Dec-10 12:33N 52°34' E 001°45'1 0.9
2014-Dec-10 11:33N 52°34' E 001°46'0 0.0
2014-Dec-10 10:33N 52°34' E 001°46'0 0.0
2014-Dec-10 09:33N 52°34' E 001°46'0 0.0
2014-Dec-10 08:33N 52°34' E 001°46'0 0.0
2014-Dec-10 07:33N 52°34' E 001°46'0 0.1
2014-Dec-10 06:33N 52°34' E 001°46'0 0.1
2014-Dec-10 05:33N 52°34' E 001°46'0 0.0
2014-Dec-10 04:33N 52°34' E 001°46'0 0.0
2014-Dec-10 03:33N 52°34' E 001°46'0 0.0
2014-Dec-10 02:33N 52°34' E 001°46'0 0.0
2014-Dec-10 01:33N 52°34' E 001°46'0 0.0
2014-Dec-10 00:33N 52°34' E 001°46'0 0.1
2014-Dec-09 23:30N 52°34' E 001°46'0 0.0
2014-Dec-09 22:32N 52°34' E 001°46'0 0.0
2014-Dec-09 21:32N 52°34' E 001°46'0 0.1
2014-Dec-09 20:32N 52°34' E 001°46'0 0.1
2014-Dec-09 19:32N 52°34' E 001°46'0 0.0
2014-Dec-09 18:32N 52°34' E 001°46'0 0.0
2014-Dec-09 17:32N 52°34' E 001°46'0 0.0
2014-Dec-09 16:32N 52°34' E 001°46'  
Track history (hours):
 
Tides and Currents Weather Stations Pressure Air Temp Water Temp Dewpoint Dewpoint Depression Visibility Wind Speed Wind Dir Waves Ship Positions

Forseti

Last reported at 2014-Dec-19 16:14 UTC. Time now 2014-Dec-20 08:45 UTC.
Position N 55°40' E 015°33'.

Length 85 m; draft 3.8 m.

Type: Cargo ship. MMSI: 304010297.

Date/timePositionNaut miles runAvg speedWind from/ knotsBaromVisibWave heightAir tempDewpointWater temp
2014-Dec-19 16:14N 55°40' E 015°33'710.2
2014-Dec-19 15:33N 55°36' E 015°22'1010.1
2014-Dec-19 14:31N 55°31' E 015°06'1010.4
2014-Dec-19 13:33N 55°26' E 014°50'1110.5
2014-Dec-19 12:33N 55°20' E 014°36'1110.7
2014-Dec-19 11:33N 55°11' E 014°24'1010.3
2014-Dec-19 10:33N 55°04' E 014°13'9 9.4
2014-Dec-19 09:33N 54°58' E 013°60'10 9.7
2014-Dec-19 08:30N 54°54' E 013°43'52 9.9
2014-Dec-19 03:15N 54°32' E 012°21'810.1
2014-Dec-19 02:29N 54°26' E 012°13'9 9.3
2014-Dec-19 01:33N 54°24' E 011°59'1010.5
2014-Dec-19 00:33N 54°26' E 011°41'1111.2
2014-Dec-18 23:33N 54°31' E 011°23'1211.8
2014-Dec-18 22:33N 54°35' E 011°04'1210.8
2014-Dec-18 21:28N 54°33' E 010°44'910.2
2014-Dec-18 20:33N 54°31' E 010°28'1010.1
2014-Dec-18 19:33N 54°26' E 010°14'5 4.8
2014-Dec-18 18:33N 54°22' E 010°09'6 6.2
2014-Dec-18 17:34N 54°21' E 009°58'8 7.6
2014-Dec-18 16:33N 54°21' E 009°45'6 4.6
2014-Dec-18 15:11N 54°16' E 009°38'4 5.2
2014-Dec-18 14:24N 54°12' E 009°34'8 8.6
2014-Dec-18 13:28N 54°09' E 009°22'8 8.3
2014-Dec-18 12:33N 54°02' E 009°18'8 8.3
2014-Dec-18 11:33N 53°55' E 009°11'2 1.6
2014-Dec-18 10:33N 53°54' E 009°09'2 1.8
2014-Dec-18 09:34N 53°53' E 009°06'2 2.4
2014-Dec-18 08:33N 53°52' E 009°02'1110.7
2014-Dec-18 07:33N 53°51' E 008°44'1010.3
2014-Dec-18 06:33N 53°58' E 008°31'1111.1
2014-Dec-18 05:33N 53°59' E 008°12'1111.1
2014-Dec-18 04:33N 54°03' E 007°54'1211.9
2014-Dec-18 03:33N 54°08' E 007°37'1211.7
2014-Dec-18 02:33N 54°09' E 007°17'4610.9
2014-Dec-17 22:22N 54°07' E 005°59'910.5
2014-Dec-17 21:33N 54°05' E 005°45'1110.5
2014-Dec-17 20:32N 54°04' E 005°26'1010.6
2014-Dec-17 19:33N 54°02' E 005°09'1010.6
2014-Dec-17 18:33N 54°01' E 004°51'21617.6
2014-Dec-17 06:16N 54°35' W 001°14'7126.1
2014-Dec-17 03:34N 54°07' E 000°37'10 9.7
2014-Dec-17 02:33N 54°08' E 000°20'1010.0
2014-Dec-17 01:34N 54°09' E 000°03'10 9.6
2014-Dec-17 00:33N 54°15' W 000°08'1010.1
2014-Dec-16 23:33N 54°23' W 000°20'1110.5
2014-Dec-16 22:33N 54°31' W 000°32'1111.1
2014-Dec-16 21:33N 54°36' W 000°49'1010.5
2014-Dec-16 20:33N 54°40' W 001°05'7 2.1
2014-Dec-16 17:16N 54°35' W 001°14'0 0.0
2014-Dec-16 16:31N 54°35' W 001°14'0 0.0
2014-Dec-16 15:31N 54°35' W 001°14'0 0.0
2014-Dec-16 14:31N 54°35' W 001°14'0 0.0
2014-Dec-16 13:32N 54°35' W 001°14'0 0.0
2014-Dec-16 12:22N 54°35' W 001°14'0 0.0
2014-Dec-16 11:22N 54°35' W 001°14'0 0.0
2014-Dec-16 10:07N 54°35' W 001°14'0 0.0
2014-Dec-16 09:22N 54°35' W 001°14'0 0.0
2014-Dec-16 08:25N 54°35' W 001°14'0 0.0
2014-Dec-16 07:34N 54°35' W 001°14'0 0.0
2014-Dec-16 06:18N 54°35' W 001°14'0 0.0
2014-Dec-15 17:15N 54°35' W 001°14'0 0.0
2014-Dec-15 16:33N 54°35' W 001°14'0 0.0
2014-Dec-15 15:18N 54°35' W 001°14'0 0.0
2014-Dec-15 14:30N 54°35' W 001°14'0 0.0
2014-Dec-15 13:34N 54°35' W 001°14'0 0.0
2014-Dec-15 12:21N 54°35' W 001°14'0 0.0
2014-Dec-15 11:33N 54°35' W 001°14'0 0.0
2014-Dec-15 10:33N 54°35' W 001°14'0 0.0
2014-Dec-15 09:24N 54°35' W 001°14'0 0.0
2014-Dec-15 08:09N 54°35' W 001°14'0 0.0
2014-Dec-15 07:21N 54°35' W 001°14'0 0.0
2014-Dec-15 06:21N 54°35' W 001°14'0 0.0
2014-Dec-15 05:33N 54°35' W 001°14'0 0.0
2014-Dec-14 23:21N 54°35' W 001°14'0 0.0
2014-Dec-14 10:29N 54°35' W 001°14'0 0.0
2014-Dec-14 09:29N 54°35' W 001°14'0 0.0
2014-Dec-14 08:32N 54°35' W 001°14'0 0.0
2014-Dec-14 07:29N 54°35' W 001°14'0 0.0
2014-Dec-14 01:32N 54°35' W 001°14'0 0.0
2014-Dec-13 19:32N 54°35' W 001°14'0 0.0
2014-Dec-13 07:23N 54°35' W 001°14'0 0.0
2014-Dec-13 06:29N 54°35' W 001°14'0 0.0
2014-Dec-13 05:08N 54°35' W 001°14'0 0.0
2014-Dec-13 04:20N 54°35' W 001°14'0 0.0
2014-Dec-12 23:20N 54°35' W 001°14'0 0.0
2014-Dec-12 22:20N 54°35' W 001°14'0 0.0
2014-Dec-12 16:25N 54°35' W 001°14'2 2.6
2014-Dec-12 15:29N 54°36' W 001°10'7 5.6
2014-Dec-12 14:19N 54°41' W 001°03'0 0.1
2014-Dec-12 13:23N 54°41' W 001°03'6 6.7
2014-Dec-12 12:32N 54°38' W 000°54'9 9.0
2014-Dec-12 11:33N 54°34' W 000°41'9 8.5
2014-Dec-12 10:33N 54°30' W 000°28'9 8.5
2014-Dec-12 09:33N 54°23' W 000°19'9 9.1
2014-Dec-12 08:33N 54°16' W 000°09'9 8.6
2014-Dec-12 07:33N 54°10' E 000°00'8 8.5
2014-Dec-12 06:33N 54°03' E 000°09'9 8.8
2014-Dec-12 05:33N 53°55' E 000°15'9 9.4
2014-Dec-12 04:33N 53°47' E 000°24'1010.2
2014-Dec-12 03:33N 53°38' E 000°32'4210.3
2014-Dec-11 23:31N 53°02' E 001°07'8 8.5
2014-Dec-11 22:33N 52°58' E 001°19'8 7.8
2014-Dec-11 21:33N 52°55' E 001°31'8 8.2
2014-Dec-11 20:33N 52°49' E 001°40'9 8.6
2014-Dec-11 19:33N 52°41' E 001°46'6 6.4
2014-Dec-11 18:33N 52°35' E 001°44'0 0.3
2014-Dec-11 17:32N 52°35' E 001°44'0 0.0
2014-Dec-11 16:32N 52°35' E 001°44'0 0.0
2014-Dec-11 15:32N 52°35' E 001°44'0 0.0
2014-Dec-11 14:32N 52°35' E 001°44'0 0.0
2014-Dec-11 13:32N 52°35' E 001°44'0 0.0
2014-Dec-11 12:32N 52°35' E 001°44'0 0.0
2014-Dec-11 11:32N 52°35' E 001°44'0 0.0
2014-Dec-11 10:31N 52°35' E 001°44'0 0.0
2014-Dec-11 09:31N 52°35' E 001°44'0 0.0
2014-Dec-11 08:31N 52°35' E 001°44'0 0.0
2014-Dec-11 07:31N 52°35' E 001°44'0 0.0
2014-Dec-11 06:31N 52°35' E 001°44'0 0.0
2014-Dec-11 05:31N 52°35' E 001°44'0 0.0
2014-Dec-11 04:31N 52°35' E 001°44'0 0.0
2014-Dec-11 03:31N 52°35' E 001°44'0 0.0
2014-Dec-11 02:31N 52°35' E 001°44'0 0.0
2014-Dec-11 01:31N 52°35' E 001°44'0 0.0
2014-Dec-11 00:31N 52°35' E 001°44'0 0.0
2014-Dec-10 23:31N 52°35' E 001°44'0 0.0
2014-Dec-10 22:31N 52°35' E 001°44'0 0.0
2014-Dec-10 21:31N 52°35' E 001°44'0 0.0
2014-Dec-10 20:31N 52°35' E 001°44'0 0.0
2014-Dec-10 19:31N 52°35' E 001°44'0 0.0
2014-Dec-10 18:31N 52°35' E 001°44'0 0.0
2014-Dec-10 17:31N 52°35' E 001°44'0 0.0
2014-Dec-10 16:31N 52°35' E 001°44'0 0.0
2014-Dec-10 15:31N 52°35' E 001°44'0 0.0
2014-Dec-10 14:31N 52°35' E 001°44'0 0.0
2014-Dec-10 13:31N 52°35' E 001°44'1 1.0
2014-Dec-10 12:33N 52°34' E 001°45'1 0.9
2014-Dec-10 11:33N 52°34' E 001°46'0 0.0
2014-Dec-10 10:33N 52°34' E 001°46'0 0.0
2014-Dec-10 09:33N 52°34' E 001°46'0 0.0
2014-Dec-10 08:33N 52°34' E 001°46'0 0.0
2014-Dec-10 07:33N 52°34' E 001°46'0 0.1
2014-Dec-10 06:33N 52°34' E 001°46'0 0.1
2014-Dec-10 05:33N 52°34' E 001°46'0 0.0
2014-Dec-10 04:33N 52°34' E 001°46'0 0.0
2014-Dec-10 03:33N 52°34' E 001°46'0 0.0
2014-Dec-10 02:33N 52°34' E 001°46'0 0.0
2014-Dec-10 01:33N 52°34' E 001°46'0 0.0
2014-Dec-10 00:33N 52°34' E 001°46'0 0.1
2014-Dec-09 23:30N 52°34' E 001°46'0 0.0
2014-Dec-09 22:32N 52°34' E 001°46'0 0.0
2014-Dec-09 21:32N 52°34' E 001°46'0 0.1
2014-Dec-09 20:32N 52°34' E 001°46'0 0.1
2014-Dec-09 19:32N 52°34' E 001°46'0 0.0
2014-Dec-09 18:32N 52°34' E 001°46'0 0.0
2014-Dec-09 17:32N 52°34' E 001°46'0 0.0
2014-Dec-09 16:32N 52°34' E 001°46'  

Dump ship's entire track history